createdAt,value
2022-12-20T00:03:55.124Z,100829.91
2022-12-20T00:08:59.056Z,100844.72
2022-12-20T00:14:00.700Z,100825.63
2022-12-20T00:19:05.003Z,100808.94
2022-12-20T00:24:07.124Z,100800.03
2022-12-20T00:29:08.811Z,100796.44
2022-12-20T00:34:10.789Z,100809.81
2022-12-20T00:39:12.468Z,100804.69
2022-12-20T00:44:14.126Z,100803.59
2022-12-20T00:49:16.576Z,100799.84
2022-12-20T00:54:18.247Z,100793.97
2022-12-20T00:59:20.794Z,100787.94
2022-12-20T01:04:25.938Z,100786.75
2022-12-20T01:09:27.564Z,100777.59
2022-12-20T01:14:29.392Z,100774.63
2022-12-20T01:19:31.077Z,100743.47
2022-12-20T01:24:32.682Z,100755.91
2022-12-20T01:29:34.273Z,100764.53
2022-12-20T01:34:35.999Z,100782.22
2022-12-20T01:39:37.640Z,100777.59
2022-12-20T01:44:42.353Z,100774.91
2022-12-20T01:49:46.583Z,100764.34
2022-12-20T01:54:55.138Z,100765.13
2022-12-20T01:59:57.406Z,100756.00
2022-12-20T02:04:59.238Z,100758.72
2022-12-20T02:10:01.756Z,100762.88
2022-12-20T02:15:18.325Z,100759.31
2022-12-20T02:20:38.509Z,100752.13
2022-12-20T02:26:02.013Z,100759.13
2022-12-20T02:31:07.336Z,100763.16
2022-12-20T02:36:09.170Z,100757.41
2022-12-20T02:41:43.143Z,100773.97
2022-12-20T02:46:45.144Z,100762.47
2022-12-20T02:51:48.986Z,100758.88
2022-12-20T02:56:56.240Z,100748.66
2022-12-20T03:01:59.694Z,100747.63
2022-12-20T03:07:10.471Z,100741.41
2022-12-20T03:12:13.225Z,100735.28
2022-12-20T03:17:15.196Z,100723.09
2022-12-20T03:22:17.162Z,100718.75
2022-12-20T03:27:19.665Z,100721.13
2022-12-20T03:32:21.739Z,100727.00
2022-12-20T03:37:23.543Z,100714.66
2022-12-20T03:42:25.700Z,100725.88
2022-12-20T03:47:27.442Z,100715.06
2022-12-20T03:52:30.221Z,100715.41
2022-12-20T03:57:31.940Z,100724.44
2022-12-20T04:02:34.671Z,100721.63
2022-12-20T04:07:36.646Z,100714.38
2022-12-20T04:12:38.385Z,100701.25
2022-12-20T04:17:44.322Z,100712.59
2022-12-20T04:22:50.873Z,100715.38
2022-12-20T04:27:52.702Z,100701.41
2022-12-20T04:32:54.945Z,100708.56
2022-12-20T04:37:57.642Z,100699.69
2022-12-20T04:42:59.870Z,100699.69
2022-12-20T04:48:21.129Z,100707.13
2022-12-20T04:53:42.555Z,100698.94
2022-12-20T04:58:46.242Z,100699.00
2022-12-20T05:03:49.185Z,100693.72
2022-12-20T05:08:51.266Z,100688.28
2022-12-20T05:13:53.015Z,100688.09
2022-12-20T05:18:56.097Z,100682.78
2022-12-20T05:24:16.825Z,100688.84
2022-12-20T05:29:41.003Z,100674.88
2022-12-20T05:34:42.679Z,100685.97
2022-12-20T05:39:44.875Z,100677.53
2022-12-20T05:44:52.982Z,100660.94
2022-12-20T05:49:56.367Z,100666.81
2022-12-20T05:54:58.167Z,100661.31
2022-12-20T06:00:01.175Z,100655.75
2022-12-20T06:05:07.214Z,100662.84
2022-12-20T06:10:09.756Z,100658.31
2022-12-20T06:15:26.607Z,100652.25
2022-12-20T06:20:28.620Z,100654.25
2022-12-20T06:25:32.969Z,100665.41
2022-12-20T06:30:35.200Z,100661.81
2022-12-20T06:35:42.156Z,100660.03
2022-12-20T06:40:44.372Z,100667.19
2022-12-20T06:45:46.176Z,100660.19
2022-12-20T06:50:55.304Z,100660.19
2022-12-20T06:55:58.338Z,100674.53
2022-12-20T07:01:00.844Z,100685.78
2022-12-20T07:06:02.593Z,100694.56
2022-12-20T07:11:07.986Z,100678.97
2022-12-20T07:16:10.158Z,100679.66
2022-12-20T07:21:14.089Z,100673.25
2022-12-20T07:26:15.869Z,100663.41
2022-12-20T07:31:17.624Z,100654.53
2022-12-20T07:36:20.215Z,100637.47
2022-12-20T07:41:22.166Z,100640.19
2022-12-20T07:46:23.930Z,100656.34
2022-12-20T07:51:31.257Z,100652.09
2022-12-20T07:56:40.815Z,100652.75
2022-12-20T08:01:44.302Z,100678.34
2022-12-20T08:06:46.482Z,100686.84
2022-12-20T08:11:48.858Z,100691.56
2022-12-20T08:16:50.798Z,100678.00
2022-12-20T08:21:52.505Z,100670.53
2022-12-20T08:26:54.087Z,100667.59
2022-12-20T08:31:55.719Z,100666.91
2022-12-20T08:36:57.341Z,100668.75
2022-12-20T08:41:58.984Z,100670.69
2022-12-20T08:47:00.640Z,100674.97
2022-12-20T08:52:02.337Z,100662.88
2022-12-20T08:57:03.947Z,100677.97
2022-12-20T09:02:06.765Z,100676.84
2022-12-20T09:07:08.706Z,100668.16
2022-12-20T09:12:10.320Z,100670.53
2022-12-20T09:17:12.472Z,100685.75
2022-12-20T09:22:14.088Z,100669.13
2022-12-20T09:27:15.779Z,100669.31
2022-12-20T09:32:17.389Z,100674.91
2022-12-20T09:37:19.015Z,100677.81
2022-12-20T09:42:22.712Z,100676.41
2022-12-20T09:47:25.128Z,100687.47
2022-12-20T09:52:56.501Z,100685.38
2022-12-20T09:58:10.293Z,100678.47
2022-12-20T10:03:16.809Z,100679.59
2022-12-20T10:08:29.951Z,100682.63
2022-12-20T10:13:36.533Z,100700.97
2022-12-20T10:19:06.016Z,100698.41
2022-12-20T10:24:16.889Z,100674.41
2022-12-20T10:29:19.689Z,100674.22
2022-12-20T10:34:21.337Z,100673.28
2022-12-20T10:39:40.814Z,100655.88
2022-12-20T10:44:44.145Z,100661.91
2022-12-20T10:49:45.758Z,100645.84
2022-12-20T10:54:47.800Z,100637.25
2022-12-20T10:59:55.049Z,100639.44
2022-12-20T11:05:01.225Z,100625.16
2022-12-20T11:10:27.538Z,100615.63
2022-12-20T11:15:34.823Z,100589.16
2022-12-20T11:20:53.506Z,100600.19
2022-12-20T11:26:19.890Z,100589.97
2022-12-20T11:31:36.525Z,100592.88
2022-12-20T11:37:16.494Z,100571.50
2022-12-20T11:42:24.083Z,100570.91
2022-12-20T11:47:25.791Z,100573.94
2022-12-20T11:52:48.840Z,100549.16
2022-12-20T11:58:19.728Z,100568.88
2022-12-20T12:03:33.354Z,100561.88
2022-12-20T12:08:55.361Z,100562.09
2022-12-20T12:13:57.865Z,100554.16
2022-12-20T12:19:00.985Z,100523.03
2022-12-20T12:24:23.689Z,100516.13
2022-12-20T12:29:25.657Z,100514.63
2022-12-20T12:34:39.354Z,100492.38
2022-12-20T12:40:05.210Z,100491.78
2022-12-20T12:45:28.424Z,100491.97
2022-12-20T12:50:37.732Z,100494.63
2022-12-20T12:55:40.834Z,100474.22
2022-12-20T13:00:52.869Z,100480.75
2022-12-20T13:05:54.609Z,100480.59
2022-12-20T13:10:57.950Z,100476.19
2022-12-20T13:16:11.504Z,100471.75
2022-12-20T13:21:32.643Z,100459.19
2022-12-20T13:26:50.978Z,100455.78
2022-12-20T13:31:54.774Z,100448.78
2022-12-20T13:36:59.454Z,100437.34
2022-12-20T13:42:24.095Z,100436.72
2022-12-20T13:47:25.712Z,100401.69
2022-12-20T13:52:32.565Z,100425.66
2022-12-20T13:57:44.968Z,100416.16
2022-12-20T14:02:46.939Z,100407.47
2022-12-20T14:07:58.670Z,100411.72
2022-12-20T14:13:00.412Z,100434.75
2022-12-20T14:18:21.889Z,100403.47
2022-12-20T14:23:38.275Z,100395.84
2022-12-20T14:28:44.342Z,100390.84
2022-12-20T14:33:46.003Z,100379.97
2022-12-20T14:38:49.789Z,100388.22
2022-12-20T14:43:56.679Z,100385.44
2022-12-20T14:49:19.107Z,100353.91
2022-12-20T14:55:05.621Z,100353.50
2022-12-20T15:00:18.557Z,100355.63
2022-12-20T15:05:35.935Z,100341.44
2022-12-20T15:10:37.862Z,100380.91
2022-12-20T15:15:39.689Z,100371.47
2022-12-20T15:20:45.899Z,100356.34
2022-12-20T15:25:48.454Z,100357.59
2022-12-20T15:30:51.301Z,100371.66
2022-12-20T15:35:53.769Z,100353.91
2022-12-20T15:41:00.690Z,100359.28
2022-12-20T15:46:02.295Z,100361.09
2022-12-20T15:51:31.380Z,100377.50
2022-12-20T15:56:33.083Z,100368.00
2022-12-20T16:01:40.833Z,100360.69
2022-12-20T16:06:43.857Z,100356.88
2022-12-20T16:11:45.872Z,100353.50
2022-12-20T16:16:49.946Z,100353.50
2022-12-20T16:21:52.360Z,100350.00
2022-12-20T16:26:53.989Z,100377.09
2022-12-20T16:31:55.758Z,100352.22
2022-12-20T16:36:57.422Z,100356.47
2022-12-20T16:42:01.532Z,100372.03
2022-12-20T16:47:03.205Z,100365.78
2022-12-20T16:52:06.585Z,100355.09
2022-12-20T16:57:08.614Z,100353.28
2022-12-20T17:02:23.743Z,100351.59
2022-12-20T17:07:25.944Z,100337.63
2022-12-20T17:12:27.604Z,100343.78
2022-12-20T17:17:29.240Z,100330.41
2022-12-20T17:22:30.913Z,100343.97
2022-12-20T17:27:32.613Z,100345.44
2022-12-20T17:32:34.253Z,100348.63
2022-12-20T17:37:35.821Z,100337.81
2022-12-20T17:42:37.470Z,100314.75
2022-12-20T17:47:39.107Z,100306.91
2022-12-20T17:52:40.720Z,100320.28
2022-12-20T17:57:42.353Z,100307.31
2022-12-20T18:02:44.097Z,100321.31
2022-12-20T18:07:55.597Z,100295.72
2022-12-20T18:12:57.205Z,100301.53
2022-12-20T18:17:58.855Z,100292.66
2022-12-20T18:23:00.521Z,100276.03
2022-12-20T18:28:02.394Z,100275.63
2022-12-20T18:33:04.024Z,100272.22
2022-12-20T18:38:05.625Z,100273.06
2022-12-20T18:43:07.235Z,100264.41
2022-12-20T18:48:08.876Z,100252.13
2022-12-20T18:53:10.534Z,100276.78
2022-12-20T18:58:13.522Z,100265.25
2022-12-20T19:03:16.193Z,100275.50
2022-12-20T19:08:19.047Z,100282.78
2022-12-20T19:13:21.205Z,100278.16
2022-12-20T19:18:22.849Z,100272.97
2022-12-20T19:23:24.553Z,100260.59
2022-12-20T19:28:26.187Z,100243.63
2022-12-20T19:33:27.846Z,100251.56
2022-12-20T19:38:29.446Z,100240.66
2022-12-20T19:43:31.337Z,100243.63
2022-12-20T19:48:33.699Z,100221.94
2022-12-20T19:53:35.909Z,100230.50
2022-12-20T19:58:38.039Z,100244.47
2022-12-20T20:03:39.716Z,100228.75
2022-12-20T20:08:41.643Z,100224.38
2022-12-20T20:13:43.357Z,100246.19
2022-12-20T20:18:46.123Z,100230.31
2022-12-20T20:23:48.728Z,100220.69
2022-12-20T20:28:50.977Z,100229.03
2022-12-20T20:33:52.797Z,100232.84
2022-12-20T20:38:54.453Z,100225.97
2022-12-20T20:43:56.077Z,100224.81
2022-12-20T20:48:58.362Z,100217.19
2022-12-20T20:53:59.992Z,100220.28
2022-12-20T20:59:06.898Z,100216.13
2022-12-20T21:04:09.863Z,100201.75
2022-12-20T21:09:11.715Z,100221.94
2022-12-20T21:14:13.436Z,100199.81
2022-12-20T21:19:16.383Z,100212.34
2022-12-20T21:24:18.190Z,100214.84
2022-12-20T21:29:20.315Z,100199.81
2022-12-20T21:34:21.968Z,100216.78
2022-12-20T21:39:24.367Z,100199.09
2022-12-20T21:44:26.014Z,100213.28
2022-12-20T21:49:27.592Z,100192.84
2022-12-20T21:54:29.190Z,100198.34
2022-12-20T21:59:30.917Z,100210.63
2022-12-20T22:04:33.335Z,100221.00
2022-12-20T22:09:34.931Z,100212.34
2022-12-20T22:14:36.555Z,100201.75
2022-12-20T22:19:38.368Z,100220.16
2022-12-20T22:24:40.121Z,100201.09
2022-12-20T22:29:41.727Z,100190.84
2022-12-20T22:34:43.325Z,100180.78
2022-12-20T22:39:44.960Z,100180.78
2022-12-20T22:44:46.565Z,100184.19
2022-12-20T22:49:48.131Z,100176.34
2022-12-20T22:54:49.755Z,100166.59
2022-12-20T22:59:51.375Z,100176.13
2022-12-20T23:04:53.622Z,100187.88
2022-12-20T23:09:55.214Z,100165.47
2022-12-20T23:15:15.232Z,100163.66
2022-12-20T23:20:35.606Z,100169.56
2022-12-20T23:25:37.190Z,100164.19
2022-12-20T23:30:38.784Z,100157.91
2022-12-20T23:35:40.422Z,100136.13
2022-12-20T23:40:42.049Z,100122.06
2022-12-20T23:45:43.680Z,100121.72
2022-12-20T23:50:45.366Z,100122.56
2022-12-20T23:55:56.990Z,100128.09
